x

8452944 - Conimicut Light, Ri (cptr1) Weather Station

4:18 - Mon 28th Jul 2014 All times are EDT. -4 hours from GMT.

  • Wind
    21mph, 22mph gusts
  • Sea Temp 75°f
  • Air Temp 77°f
  • Sea Pressure 997.9mb
  • 8452944 - Conimicut Light, Ri
  • 8452944 - Conimicut Light, Ri

More Historic Weather Station data

Upgrade to MSW Pro to gain access to the past 30 days of data for over 8000 Wavebouys and Weather Stations around the globe.

Join Pro

Comparision Forecast

View Surf forecast
   
lun. 07/28 4:18 21 22 mph 997.9mb 75f 77f
4:12 22 23 mph 998mb 75f 77f
4:06 21 23 mph 997.9mb 75f 77f
4:00 21 22 mph 998mb 75f 77f
3:54 18 21 mph 998mb 75f 77f
3:48 18 21 mph 998.2mb 75f 77f
3:42 20
mph
998.2mb 75f 76f
3:36 18 20 mph 998.3mb 75f 76f
3:30 15 17 mph 998.4mb 75f 76f
3:24 15 16 mph 998.5mb 75f 76f
3:18 15 16 mph 998.6mb 75f 75f
3:12 15 16 mph 998.7mb 75f 75f
3:06 15 16 mph 998.8mb 75f 75f
3:00 14 15 mph 998.9mb 75f 75f
2:54 14 15 mph 998.9mb 75f 74f
2:48 14 17 mph 999mb 75f 74f
2:42 16 17 mph 999mb 75f 74f
2:36 16 17 mph 999mb 75f 74f
2:30 16 18 mph 999mb 75f 74f
2:24 17
mph
999mb 75f 74f
2:18 15 16 mph 999.1mb 75f 74f
2:12 15 17 mph 999.2mb 75f 74f
2:06 15 17 mph 999.2mb 75f 74f
2:00 15 17 mph 999.3mb 75f 74f
1:54 15 16 mph 999.3mb 75f 74f
1:48 16 18 mph 999.4mb 74f 74f
1:42 15 18 mph 999.3mb 74f 74f
1:36 16 22 mph 999.4mb 74f 74f
1:30 17 23 mph 999.4mb 74f 74f
1:24 22 24 mph 999.5mb 74f 74f
1:18 17 20 mph 999.6mb 74f 74f
1:12 18 20 mph 999.6mb 74f 74f
1:06 16 22 mph 999.8mb 74f 74f
1:00 22 23 mph 999.8mb 74f 75f
12:54 21 23 mph 999.9mb 74f 75f
12:48 21 23 mph 1000mb 74f 75f
12:42 22 24 mph 1000mb 74f 75f
12:36 21 22 mph 1000.1mb 74f 74f
12:30 20 23 mph 1000.2mb 74f 74f
12:24 18 22 mph 1000.3mb 74f 73f
12:18 20 23 mph 1000.4mb 74f 74f
12:12 21 22 mph 1000.5mb 74f 74f
12:06 21 22 mph 1000.5mb 74f 74f
12:00 16 20 mph 1000.6mb 74f 74f
11:54 17 21 mph 1000.8mb 74f 74f
11:48 18 21 mph 1000.8mb 74f 74f
11:42 18 20 mph 1000.7mb 74f 74f
11:36 17 21 mph 1000.7mb 74f 74f
11:30 15 18 mph 1000.8mb 74f 74f
11:24 17 18 mph 1001mb 74f 74f
11:18 17 20 mph 1001mb 74f 74f
11:12 20 22 mph 1001.1mb 74f 74f
11:06 21 23 mph 1001.1mb 74f 74f
11:00 21 24 mph 1001.1mb 74f 74f
10:54 20 25 mph 1001.1mb 74f 74f
10:48 23 25 mph 1000.9mb 74f 74f
10:42 23 25 mph 1001mb 74f 74f
10:36 22 24 mph 1001mb 74f 74f
10:30 22 25 mph 1001mb 74f 74f
10:24 23 26 mph 1001mb 74f 74f
10:18 21 22 mph 1001mb 74f 73f
10:12 21 22 mph 1001mb 74f 73f
10:06 21 24 mph 1001mb 74f 73f
10:00 21 23 mph 1000.9mb 74f 73f
9:54 21 23 mph 1000.8mb 74f 73f
9:48 20 23 mph 1000.8mb 74f 73f
9:42 23 25 mph 1000.8mb 74f 73f
9:36 23 28 mph 1000.9mb 74f 73f
9:30 22 26 mph 1001mb 74f 73f
9:24 21 26 mph 1001mb 74f 73f
9:18 23 33 mph 1001mb 74f 73f
9:12 32 34 mph 1000.8mb 74f 73f
9:06 26 31 mph 1000.9mb 74f 73f
9:00 24 29 mph 1001mb 74f 73f
8:54 23 28 mph 1001mb 74f 73f
8:48 25 29 mph 1000.9mb 74f 73f
8:42 25 31 mph 1000.9mb 74f 73f
8:36 26 31 mph 1000.8mb 74f 73f
8:30 24 31 mph 1000.7mb 74f 73f
8:24 28 32 mph 1000.7mb 74f 73f
8:18 25 30 mph 1000.7mb 74f 73f
8:12 28 32 mph 1000.7mb 74f 73f
8:06 25 29 mph 1000.7mb 74f 73f
8:00 24 29 mph 1000.8mb 74f 73f
7:54 25 28 mph 1000.9mb 74f 73f
7:48 24 26 mph 1001mb 74f 73f
7:42 22 25 mph 1001.4mb 74f 73f
7:36 23 26 mph 1001.2mb 74f 73f
7:30 22 24 mph 1001.4mb 74f 73f
7:24 22 23 mph 1001.5mb 74f 73f
7:18 18 21 mph 1001.7mb 74f 73f
7:12 18 21 mph 1001.6mb 74f 73f
7:06 15 17 mph 1001.5mb 74f 73f
7:00 16 18 mph 1001.8mb 74f 73f
6:54 16 18 mph 1001.9mb 74f 73f
6:48 18 20 mph 1002mb 74f 73f
6:42 17 21 mph 1002.1mb 74f 73f
6:36 17 20 mph 1002.4mb 74f 73f
6:30 18 21 mph 1002.4mb 74f 73f
6:24 15 17 mph 1002.5mb 74f 73f
6:18 16 17 mph 1002.4mb 74f 73f
6:12 16 18 mph 1002.4mb 74f 73f
6:06 16 18 mph 1002.4mb 74f 73f
6:00 14 15 mph 1002.5mb 74f 73f
5:54 15 17 mph 1002.5mb 74f 73f
5:48 16 18 mph 1002.6mb 74f 73f
5:42 16 17 mph 1002.8mb 74f 73f
5:36 16 17 mph 1002.8mb 74f 73f
5:30 16 17 mph 1002.6mb 74f 73f
5:24 15 17 mph 1002.5mb 74f 72f
5:18 16 17 mph 1002.5mb 74f 72f
5:12 14 16 mph 1002.6mb 74f 72f
5:06 14 16 mph 1002.9mb 74f 72f
5:00 16 18 mph 1003.1mb 74f 72f
4:54 14 15 mph 1003mb 74f 72f
4:48 13 14 mph 1003.2mb 74f 72f
4:42 11 14 mph 1003.1mb 74f 72f
4:36 14
mph
1003.2mb 74f 72f
4:30 13 16 mph 1003.2mb 74f 72f
4:24 15 17 mph 1003.3mb 74f 72f
4:18 15 16 mph 1003.2mb 74f 72f
4:12 14 16 mph 1003.1mb 74f 72f
4:06 14 15 mph 1003.1mb 74f 72f
4:00 13 15 mph 1003.2mb 74f 72f
3:54 9 11 mph 1003.1mb 74f 72f
3:48 11 14 mph 1003.2mb 74f 72f
3:42 11 14 mph 1003.4mb 74f 72f
3:36 11 15 mph 1003.6mb 74f 72f
3:30 15 16 mph 1003.5mb 74f 72f
3:24 13 14 mph 1003.4mb 74f 72f
3:18 13 14 mph 1003.3mb 74f 72f
3:12 11 13 mph 1003.4mb 74f 72f
3:06 10 11 mph 1003.6mb 74f 72f
3:00 10 13 mph 1003.7mb 74f 72f
2:54 10 11 mph 1003.8mb 74f 72f
2:48 6 9 mph 1003.7mb 74f 72f
2:42 9 13 mph 1003.9mb 74f 72f
2:36 11 13 mph 1003.9mb 74f 72f
2:30 8 14 mph 1003.9mb 74f 72f
2:24 11 15 mph 1004mb 74f 72f
2:18 14 17 mph 1004mb 74f 72f
2:12 16 18 mph 1004.1mb 74f 72f
2:06 17 20 mph 1004.2mb 74f 72f
2:00 15 16 mph 1004.3mb 74f 72f
1:54 15 18 mph 1004.3mb 74f 72f
1:48 15 20 mph 1004.4mb 74f 71f
1:42 17 21 mph 1004.5mb 74f 71f
1:36 16 21 mph 1004.6mb 74f 72f
1:30 13 15 mph 1004.5mb 74f 72f
1:24 13 14 mph 1004.7mb 74f 72f
1:18 10 15 mph 1004.8mb 74f 72f
1:12 14 15 mph 1004.8mb 74f 72f
1:06 13 15 mph 1005mb 74f 72f
1:00 13 17 mph 1005.1mb 74f 71f
12:54 14 17 mph 1005.2mb 74f 71f
12:48 15 20 mph 1005.2mb 74f 71f
12:42 15 20 mph 1005.1mb 74f 71f
12:36 17 22 mph 1005.1mb 74f 71f
12:30 21 23 mph 1005.1mb 74f 71f
12:24 14 16 mph 1005.2mb 74f 71f
12:18 14 15 mph 1005.2mb 75f 71f
12:12 14 15 mph 1005.4mb 75f 71f
12:06 11 14 mph 1005.6mb 75f 71f
12:00 13
mph
1005.5mb 75f 71f
dim. 07/27 11:54 13 14 mph 1005.4mb 75f 72f
11:48 10 11 mph 1005.4mb 75f 72f
11:42 10 11 mph 1005.3mb 75f 72f
11:36 10 11 mph 1005.2mb 75f 72f
11:30 11 13 mph 1005.3mb 75f 72f
11:24 9 10 mph 1005.4mb 75f 72f
11:18 8 9 mph 1005.4mb 75f 72f
11:12 9
mph
1005.4mb 75f 73f
11:06 7 8 mph 1005.4mb 75f 73f
11:00 7 9 mph 1005.6mb 75f 73f
10:54 8 9 mph 1005.6mb 75f 73f
10:48 7 8 mph 1005.7mb 75f 73f
10:42 7 8 mph 1005.7mb 75f 73f
10:36 6 8 mph 1005.8mb 75f 73f
10:30 8 10 mph 1005.6mb 75f 72f
10:24 9
mph
1005.6mb 75f 72f
10:18 7 8 mph 1005.7mb 75f 73f
10:12 7 9 mph 1005.7mb 75f 72f
10:06 8 9 mph 1005.5mb 75f 72f
10:00 7 8 mph 1005.6mb 75f 72f
9:54 7 8 mph 1005.6mb 75f 72f
9:48 7 8 mph 1005.7mb 75f 72f
9:42 7 13 mph 1005.7mb 75f 72f
9:36 13 21 mph 1005.3mb 75f 72f
9:30 18 21 mph 1004.7mb 75f 72f
9:24 18 21 mph 1004.6mb 75f 72f
9:18 20 23 mph 1004.8mb 75f 72f
9:12 21 23 mph 1004.6mb 75f 72f
9:06 20 22 mph 1004.5mb 75f 72f
9:00 16 17 mph 1005mb 75f 73f
8:54 14 16 mph 1005.4mb 75f 73f
8:48 13
mph
1005.5mb 75f 73f
8:42 11 14 mph 1005.7mb 75f 73f
8:36 11 14 mph 1005.6mb 75f 73f
8:30 13 14 mph 1005.7mb 75f 73f
8:24 14 16 mph 1005.6mb 75f 73f
8:18 16 17 mph 1005.6mb 75f 73f
8:12 16 17 mph 1005.4mb 75f 73f
8:06 16 17 mph 1005.6mb 75f 73f
8:00 15 17 mph 1005.8mb 75f 73f
7:54 15 17 mph 1005.8mb 75f 73f
7:48 15 18 mph 1005.3mb 75f 73f
7:42 17 20 mph 1005.2mb 75f 73f
7:36 17 18 mph 1005.2mb 75f 73f
7:30 14 15 mph 1005.2mb 75f 73f
7:24 15 16 mph 1005.3mb 75f 73f
7:18 15 16 mph 1005.2mb 75f 73f
7:12 16 18 mph 1005.3mb 75f 73f
7:06 17 20 mph 1005.2mb 75f 73f
7:00 17 20 mph 1005.2mb 75f 73f
6:54 18 20 mph 1005.4mb 75f 73f
6:48 18 21 mph 1005.5mb 75f 73f
6:42 17 20 mph 1005.4mb 75f 73f
6:36 16 18 mph 1005.5mb 75f 73f
6:30 16 17 mph 1005.6mb 75f 73f
6:24 16 17 mph 1005.6mb 75f 73f
6:18 17 18 mph 1005.5mb 75f 73f
6:12 17 18 mph 1005.5mb 75f 73f
6:06 17 20 mph 1005.5mb 75f 73f
6:00 18 21 mph 1005.5mb 75f 73f
5:54 20 21 mph 1005.5mb 75f 73f
5:48 20 21 mph 1005.6mb 75f 73f
5:42 20 21 mph 1005.4mb 75f 73f
5:24 17 21 mph 1005.7mb 75f 73f
5:18 18 22 mph 1005.8mb 75f 73f
5:12 20 22 mph 1005.8mb 75f 73f
5:06 20 22 mph 1005.9mb 75f 73f
5:00 18 23 mph 1006mb 75f 73f
4:54 20 21 mph 1006.1mb 75f 73f
4:48 20 22 mph 1006.1mb 74f 73f
4:42 21 24 mph 1006.1mb 74f 73f
4:36 21 24 mph 1006mb 74f 73f
4:30 20 23 mph 1006.1mb 74f 73f
4:24 21 22 mph 1006.2mb 74f 73f
4:18 18 21 mph 1006.3mb 74f 73f
4:12 18 21 mph 1006.3mb 74f 73f
4:06 21 23 mph 1006.4mb 74f 73f
4:00 20 23 mph 1006.4mb 74f 73f
3:54 22 25 mph 1006.4mb 74f 72f
3:48 23 26 mph 1006.4mb 74f 72f
3:42 24 28 mph 1006.4mb 74f 72f
3:36 23 28 mph 1006.4mb 74f 72f
3:30 24 29 mph 1006.4mb 74f 72f
3:24 23 26 mph 1006.5mb 74f 72f
3:18 25 30 mph 1006.5mb 74f 72f
3:12 23 26 mph 1006.6mb 74f 72f
3:06 24 29 mph 1006.6mb 74f 72f
3:00 24 26 mph 1006.5mb 74f 72f
2:54 23 29 mph 1006.5mb 74f 72f
2:48 23 25 mph 1006.6mb 74f 72f
2:42 23 28 mph 1006.7mb 74f 72f
2:36 23 28 mph 1006.9mb 74f 72f
2:30 23 26 mph 1007mb 74f 72f
2:24 23 28 mph 1007.1mb 74f 72f
2:18 24 26 mph 1007.2mb 74f 72f
2:12 22 25 mph 1007.3mb 74f 72f
2:06 21 24 mph 1007.5mb 74f 72f
2:00 21 24 mph 1007.6mb 74f 72f
1:54 23 25 mph 1007.5mb 74f 72f
1:48 22 26 mph 1007.7mb 74f 72f
1:42 20 28 mph 1007.7mb 74f 72f
1:36 24 28 mph 1007.7mb 74f 72f
1:30 23 25 mph 1007.6mb 74f 72f
1:24 22 26 mph 1007.7mb 74f 72f
1:18 22 25 mph 1007.8mb 74f 72f
1:12 23 28 mph 1007.9mb 74f 71f
1:06 22 28 mph 1007.9mb 74f 71f
1:00 22 28 mph 1008mb 74f 71f
12:54 21 25 mph 1008.1mb 74f 71f
12:48 22 26 mph 1008.1mb 74f 71f
12:42 23 26 mph 1008.1mb 74f 72f
12:36 24 29 mph 1008.1mb 74f 72f
12:30 22 25 mph 1008.2mb 74f 72f
12:24 17 22 mph 1008.4mb 74f 72f
12:18 20 25 mph 1008.4mb 74f 72f
12:12 22 25 mph 1008.5mb 74f 72f
12:06 20 22 mph 1008.7mb 74f 72f
12:00 18 22 mph 1008.8mb 74f 71f
11:54 18 22 mph 1008.9mb 74f 71f
11:48 21 24 mph 1009mb 74f 71f
11:42 21 28 mph 1009mb 74f 71f
11:36 23 30 mph 1009.1mb 74f 71f
11:30 29 32 mph 1009.1mb 74f 72f
11:24 29 31 mph 1009.2mb 74f 72f
11:18 28 32 mph 1009.2mb 74f 72f
11:12 29 32 mph 1009.1mb 74f 73f
11:06 25 29 mph 1009.2mb 74f 73f
11:00 26 30 mph 1009mb 74f 73f
10:54 26 30 mph 1009mb 74f 73f
10:48 28 30 mph 1009.1mb 75f 73f
10:42 25 28 mph 1009.1mb 75f 73f
10:36 25 26 mph 1009.1mb 75f 73f
10:30 24 25 mph 1009.1mb 74f 73f
10:24 22 24 mph 1009.2mb 74f 73f
10:18 21 25 mph 1009.3mb 74f 73f
10:12 21 23 mph 1009.2mb 74f 73f
10:06 22 23 mph 1009.2mb 74f 73f
10:00 20 23 mph 1009.2mb 74f 73f
9:54 20 22 mph 1009.3mb 74f 73f
9:48 18 22 mph 1009.4mb 74f 73f
9:42 20 22 mph 1009.4mb 74f 73f
9:36 18 23 mph 1009.4mb 74f 73f
9:30 18 20 mph 1009.4mb 74f 73f
9:24 17 20 mph 1009.6mb 74f 73f
9:18 18 21 mph 1009.6mb 74f 73f
9:12 17 21 mph 1009.7mb 74f 73f
9:06 18 21 mph 1009.7mb 74f 73f
9:00 18 22 mph 1009.8mb 74f 73f
8:54 18 23 mph 1009.9mb 74f 73f
8:48 21 23 mph 1009.8mb 74f 73f
8:42 18 22 mph 1009.8mb 74f 73f
8:36 17 22 mph 1009.8mb 74f 73f
8:30 17 21 mph 1009.9mb 74f 72f
8:24 16 18 mph 1009.9mb 74f 72f
8:18 17 20 mph 1010mb 74f 72f
8:12 16 20 mph 1010mb 74f 72f
8:06 17 20 mph 1010mb 74f 72f
8:00 18 21 mph 1010.1mb 74f 72f
7:54 16 20 mph 1010.1mb 74f 72f
7:48 17 18 mph 1010.1mb 74f 71f
7:42 16 17 mph 1010.1mb 74f 71f
7:36 16 17 mph 1010.1mb 74f 71f
7:30 15 17 mph 1010.1mb 74f 71f
7:24 16 17 mph 1010.3mb 74f 71f
7:18 15 17 mph 1010.3mb 74f 71f
7:12 14 16 mph 1010.3mb 74f 71f
7:06 14 16 mph 1010.4mb 74f 71f
7:00 14 15 mph 1010.4mb 74f 71f
6:54 14 15 mph 1010.4mb 74f 71f
6:48 13 15 mph 1010.5mb 74f 71f
6:42 14 16 mph 1010.4mb 74f 71f
6:36 15 16 mph 1010.6mb 74f 71f
6:30 14 16 mph 1010.8mb 74f 70f
6:24 16 17 mph 1010.7mb 74f 71f
6:18 14 17 mph 1010.7mb 74f 70f
6:12 15 17 mph 1010.5mb 74f 71f
6:06 15 17 mph 1010.5mb 74f 70f
6:00 15 17 mph 1010.7mb 74f 71f
5:54 14 16 mph 1010.8mb 74f 71f
5:48 15 16 mph 1010.6mb 74f 71f
5:42 10 15 mph 1010.5mb 74f 71f
5:36 10 13 mph 1010.7mb 74f 70f
5:30 11 14 mph 1010.8mb 74f 71f
5:24 10 11 mph 1010.6mb 74f 70f
5:18 9 11 mph 1010.5mb 74f 70f
5:12 9 11 mph 1010.7mb 74f 70f
5:06 10 13 mph 1010.9mb 74f 70f
5:00 10 14 mph 1010.9mb 74f 70f
4:54 11 14 mph 1010.8mb 74f 70f
4:48 11 14 mph 1011mb 74f 70f
4:42 11 13 mph 1011.1mb 74f 70f
4:36 10 14 mph 1011.2mb 74f 70f
4:30 11 14 mph 1011.4mb 74f 70f
4:24 13 16 mph 1011.4mb 74f 70f
4:18 15 16 mph 1011.5mb 74f 71f
4:12 14 16 mph 1011.2mb 74f 71f
4:06 13 14 mph 1011.2mb 74f 70f
4:00 13 15 mph 1011.3mb 74f 71f
3:54 13 15 mph 1011.3mb 74f 71f
3:48 14 16 mph 1011.3mb 74f 71f
3:42 15 16 mph 1011.3mb 74f 71f
3:36 15 18 mph 1011.2mb 74f 71f
3:30 18 21 mph 1011.3mb 74f 70f
3:24 15 17 mph 1011.2mb 74f 70f
3:18 16 18 mph 1011.2mb 74f 70f
3:12 15 17 mph 1011.4mb 75f 70f
3:06 15 17 mph 1011.5mb 75f 70f
3:00 16 18 mph 1011.6mb 75f 70f
2:54 15 18 mph 1011.6mb 75f 70f
2:48 15 17 mph 1011.6mb 75f 70f
2:42 14 16 mph 1011.7mb 75f 70f
2:36 15 16 mph 1011.8mb 75f 70f
2:30 14 17 mph 1011.9mb 75f 70f
2:24 14 16 mph 1012mb 75f 70f
2:18 15 16 mph 1012mb 75f 69f
2:12 14 16 mph 1011.9mb 75f 69f
2:06 13 16 mph 1011.9mb 75f 69f
2:00 13 14 mph 1012mb 75f 69f
1:54 11 14 mph 1012.1mb 75f 69f
1:48 11 14 mph 1012.1mb 75f 69f
1:42 14 15 mph 1012.3mb 75f 69f
1:36 11 15 mph 1012.2mb 75f 69f
1:30 13 15 mph 1012.4mb 75f 69f
1:24 13 15 mph 1012.4mb 75f 69f
1:18 13 14 mph 1012.5mb 75f 69f
1:12 13 16 mph 1012.6mb 75f 69f
1:06 13 15 mph 1012.7mb 75f 69f
1:00 13 16 mph 1012.8mb 75f 70f
12:54 14 15 mph 1012.7mb 74f 70f
12:48 13 15 mph 1012.8mb 75f 69f
12:42 11 15 mph 1012.8mb 75f 70f
12:36 13 16 mph 1012.9mb 75f 70f
12:30 13 14 mph 1012.8mb 75f 70f
12:24 13 15 mph 1012.7mb 75f 70f
12:18 13 16 mph 1012.8mb 75f 70f
12:12 14 18 mph 1012.8mb 75f 70f
12:06 16 17 mph 1012.8mb 75f 70f
12:00 15 17 mph 1012.8mb 75f 70f
sam. 07/26 11:54 16 18 mph 1012.8mb 75f 70f
11:48 14 17 mph 1012.9mb 75f 70f
11:42 14 16 mph 1013mb 75f 70f
11:36 14 16 mph 1013mb 75f 70f
11:30 14 18 mph 1013.1mb 75f 70f
11:24 16 17 mph 1013.1mb 75f 70f
11:18 14 17 mph 1013.1mb 75f 70f
11:12 14 16 mph 1013.2mb 75f 70f
11:06 11 14 mph 1013.2mb 75f 70f
11:00 11 15 mph 1013.3mb 75f 70f
10:54 10 15 mph 1013.3mb 75f 70f
10:48 11 15 mph 1013.3mb 75f 70f
10:42 13 15 mph 1013.4mb 75f 70f
10:36 11 14 mph 1013.3mb 75f 70f
10:30 11 15 mph 1013.3mb 75f 70f
10:24 13 17 mph 1013.4mb 75f 70f
10:18 14 17 mph 1013.4mb 75f 70f
10:12 15 17 mph 1013.5mb 75f 70f
10:06 16 18 mph 1013.5mb 75f 70f
10:00 14 16 mph 1013.4mb 75f 71f
9:54 14 17 mph 1013.3mb 75f 71f
9:48 14 17 mph 1013.3mb 75f 71f
9:42 14 16 mph 1013.3mb 75f 71f
9:36 14 16 mph 1013.3mb 75f 71f
9:30 14 16 mph 1013.3mb 75f 71f
9:24 13 16 mph 1013.3mb 75f 71f
9:18 14 15 mph 1013.3mb 75f 71f
9:12 15 16 mph 1013.3mb 75f 71f
9:06 14 16 mph 1013.2mb 75f 71f
9:00 14 16 mph 1013.1mb 75f 71f
8:54 13 15 mph 1013.1mb 75f 71f
8:48 14 16 mph 1013mb 75f 71f
8:42 14 16 mph 1013mb 75f 72f
8:36 15 16 mph 1012.9mb 75f 72f
8:30 13 15 mph 1012.9mb 75f 72f
8:24 14 16 mph 1013mb 75f 72f
8:18 14 16 mph 1012.9mb 75f 72f
8:12 15 16 mph 1012.8mb 75f 72f
8:06 13 17 mph 1012.8mb 75f 72f
8:00 15 17 mph 1012.9mb 75f 72f
7:54 17 18 mph 1012.8mb 75f 73f
7:48 15 18 mph 1012.8mb 75f 73f
7:42 14 16 mph 1012.9mb 75f 73f
7:36 13 17 mph 1012.8mb 75f 73f
7:30 14 18 mph 1012.9mb 75f 73f
7:24 15 20 mph 1012.8mb 75f 73f
7:18 13 15 mph 1012.8mb 75f 74f
7:12 14 15 mph 1012.8mb 75f 74f
7:06 14 18 mph 1012.9mb 75f 74f
7:00 15 20 mph 1012.9mb 75f 74f
6:54 14 17 mph 1012.9mb 75f 73f
6:48 16 18 mph 1012.9mb 75f 73f
6:42 14 18 mph 1012.9mb 75f 73f
6:36 17 20 mph 1013mb 75f 73f
6:30 14 18 mph 1013mb 75f 73f
6:24 15 18 mph 1012.9mb 75f 74f
6:18 17 20 mph 1013mb 75f 73f
6:12 18 22 mph 1013mb 75f 73f
6:06 16 20 mph 1013mb 75f 73f
6:00 16 20 mph 1013.1mb 75f 73f
5:54 14 21 mph 1013mb 75f 73f
5:48 17 22 mph 1013.1mb 75f 73f
5:42 17 22 mph 1013.2mb 75f 72f
5:36 15 18 mph 1013.2mb 75f 72f
5:30 16 20 mph 1013.2mb 75f 72f
5:24 15 17 mph 1013.3mb 75f 73f
5:18 15 17 mph 1013.3mb 75f 73f
5:12 15 20 mph 1013.4mb 75f 73f
5:06 16 23 mph 1013.4mb 75f 73f
5:00 16 21 mph 1013.5mb 75f 74f
4:54 16 23 mph 1013.6mb 75f 74f
4:48 17 22 mph 1013.5mb 75f 74f
4:42 17 22 mph 1013.5mb 75f 73f
4:36 18 21 mph 1013.3mb 75f 73f
4:30 21 24 mph 1013.3mb 75f 73f
4:24 21 24 mph 1013.3mb 75f 73f
4:18 17 22 mph 1013.3mb 75f 74f
4:12 20 22 mph 1013.3mb 75f 74f
4:06 18 24 mph 1013.3mb 74f 74f
4:00 21 25 mph 1013.2mb 74f 74f
3:54 21 24 mph 1013.3mb 74f 74f
3:48 21 24 mph 1013.3mb 74f 75f
3:42 18 24 mph 1013.3mb 74f 75f
3:36 21 23 mph 1013.3mb 74f 75f
3:30 22 24 mph 1013.3mb 74f 75f
3:24 22 24 mph 1013.2mb 74f 75f
3:18 20 23 mph 1013.2mb 74f 75f
3:12 21 24 mph 1013.3mb 74f 75f
3:06 23 26 mph 1013.3mb 74f 75f
3:00 21 25 mph 1013.3mb 74f 75f
2:54 22 24 mph 1013.3mb 74f 75f
2:48 23 26 mph 1013.3mb 75f 76f
2:42 23 28 mph 1013.4mb 75f 76f
2:36 24 28 mph 1013.3mb 75f 76f
2:30 22 25 mph 1013.4mb 75f 76f
2:24 20 23 mph 1013.4mb 76f 77f
2:18 17 23 mph 1013.4mb 76f 77f
2:12 20 23 mph 1013.4mb 76f 77f
2:06 21 24 mph 1013.5mb 76f 77f
2:00 22 24 mph 1013.7mb 76f 77f
1:54 18 22 mph 1013.7mb 76f 78f
1:48 17 22 mph 1013.7mb 76f 78f
1:42 15 18 mph 1013.7mb 76f 78f
1:36 16 22 mph 1013.8mb 76f 78f
1:30 21 23 mph 1013.8mb 76f 78f
1:24 20 24 mph 1013.7mb 76f 77f
1:18 14 17 mph 1013.9mb 76f 78f
1:12 13 15 mph 1013.9mb 76f 78f
1:06 14 18 mph 1013.9mb 76f 77f
1:00 17 21 mph 1014.1mb 76f 77f
12:54 20 22 mph 1014.2mb 76f 77f
12:48 22 24 mph 1014.1mb 76f 77f
12:42 18 22 mph 1014.1mb 76f 77f
12:36 16 18 mph 1014.1mb 76f 77f
12:30 13 16 mph 1014.1mb 76f 77f
12:24 14 16 mph 1014.2mb 76f 77f
12:18 13 15 mph 1014.3mb 76f 77f
12:12 16 20 mph 1014.4mb 76f 77f
12:06 14 18 mph 1014.5mb 76f 76f
12:00 11 15 mph 1014.5mb 76f 75f
11:54 14 16 mph 1014.4mb 76f 74f
11:48 14 16 mph 1014.5mb 76f 74f
11:42 14 15 mph 1014.6mb 76f 74f
11:36 14 15 mph 1014.6mb 76f 74f
11:30 14 15 mph 1014.7mb 76f 74f
11:24 15 16 mph 1014.8mb 76f 73f
11:18 11 14 mph 1014.8mb 76f 73f
11:12 11 14 mph 1014.8mb 76f 73f
11:06 11 13 mph 1014.9mb 76f 73f
11:00 11 13 mph 1014.9mb 76f 73f
10:54 13 14 mph 1014.9mb 76f 73f
10:48 13 14 mph 1014.9mb 76f 73f
10:42 13 14 mph 1015mb 76f 73f
10:36 13 15 mph 1015mb 76f 73f
10:30 13 14 mph 1015mb 76f 73f
10:24 13 15 mph 1015mb 76f 72f
10:18 13 14 mph 1015.1mb 76f 72f
10:12 14 15 mph 1015.2mb 76f 72f
10:06 14 15 mph 1015.1mb 76f 72f
10:00 11 13 mph 1015.1mb 76f 72f
9:54 10 13 mph 1015.1mb 76f 72f
9:48 10 11 mph 1015.2mb 76f 72f
9:42 10 11 mph 1015.2mb 76f 71f
9:36 10 13 mph 1015.2mb 76f 72f
9:30 11 13 mph 1015.3mb 76f 71f
9:24 10 11 mph 1015.4mb 75f 72f
9:18 8 9 mph 1015.4mb 75f 72f
9:12 7 9 mph 1015.5mb 75f 72f
9:06 6 10 mph 1015.5mb 75f 72f
9:00 7 9 mph 1015.6mb 75f 72f
8:54 7 9 mph 1015.6mb 75f 72f
8:48 8 11 mph 1015.7mb 75f 72f
8:42 10 13 mph 1015.8mb 75f 71f
8:36 7 8 mph 1015.8mb 75f 71f
8:30 7 9 mph 1015.8mb 75f 71f
8:24 8 10 mph 1015.8mb 75f 71f
8:18 9 13 mph 1015.8mb 75f 71f
8:12 13 14 mph 1015.9mb 75f 71f
8:06 10 11 mph 1015.8mb 75f 70f
8:00 7 10 mph 1015.7mb 75f 70f
7:54 2 6 mph 1015.6mb 75f 70f
7:48  -  3 mph 1015.6mb 75f 70f
7:42 3
mph
1015.6mb 75f 70f
7:36 1 3 mph 1015.6mb 75f 69f
7:30 1 3 mph 1015.6mb 75f 69f
7:24 2 5 mph 1015.6mb 75f 69f
7:18 3 5 mph 1015.6mb 75f 68f
7:12 3 7 mph 1015.6mb 75f 68f
7:06 6 8 mph 1015.5mb 75f 67f
7:00 6 9 mph 1015.5mb 75f 67f
6:54 6 8 mph 1015.5mb 75f 67f
6:48 7 9 mph 1015.5mb 75f 67f
6:42 7 9 mph 1015.5mb 75f 67f
6:36 8 10 mph 1015.5mb 75f 67f
6:30 8 9 mph 1015.5mb 75f 67f
6:24 8 9 mph 1015.4mb 75f 67f
6:18 7 9 mph 1015.4mb 75f 67f
6:12 6 8 mph 1015.4mb 75f 66f
6:06 7 9 mph 1015.4mb 75f 66f
6:00 7 8 mph 1015.4mb 75f 66f
5:54 7 9 mph 1015.4mb 75f 66f
5:48 7 9 mph 1015.4mb 75f 66f
5:42 6 9 mph 1015.3mb 75f 66f
5:36 6 8 mph 1015.4mb 76f 67f
5:30 7 9 mph 1015.4mb 76f 67f
5:24 8 10 mph 1015.3mb 76f 67f
5:18 8 10 mph 1015.4mb 76f 67f
5:12 9 11 mph 1015.3mb 76f 67f
5:06 9 11 mph 1015.2mb 76f 67f
5:00 10 11 mph 1015.1mb 76f 67f
4:54 10 11 mph 1015.1mb 76f 67f
4:48 9 11 mph 1015.1mb 76f 67f
4:42 9 11 mph 1015mb 76f 67f
4:36 8 10 mph 1015.1mb 76f 67f
4:30 8 9 mph 1015.1mb 76f 68f
4:24 7 8 mph 1015mb 76f 68f
4:18 7 9 mph 1015mb 76f 68f
4:12 7 9 mph 1015mb 76f 67f
4:06 8 11 mph 1015.1mb 76f 67f
4:00 9 11 mph 1015.2mb 76f 67f
3:54 10 14 mph 1015.2mb 76f 67f
3:48 11 14 mph 1015.2mb 76f 67f
3:42 13 14 mph 1015.2mb 76f 67f
3:36 13 15 mph 1015.2mb 76f 67f
3:30 13 14 mph 1015.1mb 76f 67f
3:24 13 15 mph 1015.2mb 76f 67f
3:18 13 14 mph 1015.1mb 76f 67f
3:12 10 13 mph 1015.1mb 76f 67f
3:06 10 13 mph 1015mb 76f 67f
3:00 10 14 mph 1015mb 76f 67f
2:54 10 13 mph 1015mb 76f 68f
2:48 11 13 mph 1015.1mb 76f 68f
2:42 10 14 mph 1015.1mb 76f 68f
2:36 11 15 mph 1015mb 76f 68f
2:30 10 14 mph 1015mb 76f 68f
2:24 11 16 mph 1015.1mb 76f 68f
2:18 14 16 mph 1015.2mb 76f 68f
2:12 13 16 mph 1015.2mb 76f 69f
2:06 13 15 mph 1015.3mb 76f 69f
2:00 13 16 mph 1015.2mb 76f 69f
1:54 13 15 mph 1015.3mb 76f 69f
1:48  -  mph 1015.3mb 76f 69f
1:42  -  mph 1015.3mb 76f 69f
1:36  -  mph 1015.3mb 76f 69f
1:30 13 17 mph 1015.3mb 76f 69f
1:24 13 15 mph 1015.3mb 76f 69f
1:18 13 15 mph 1015.3mb 76f 69f
1:12 11 15 mph 1015.4mb 76f 69f
1:06 13 14 mph 1015.5mb 76f 69f
1:00 11 14 mph 1015.5mb 76f 69f
12:54 11 14 mph 1015.5mb 76f 69f
12:48 11 14 mph 1015.4mb 76f 70f
12:42 10 13 mph 1015.4mb 76f 69f
12:36 10 13 mph 1015.4mb 76f 69f
12:30 9 10 mph 1015.4mb 76f 69f
12:24 8 10 mph 1015.5mb 76f 70f
12:18 7 9 mph 1015.5mb 76f 69f
12:12 8 9 mph 1015.6mb 76f 70f
12:06 9 11 mph 1015.5mb 76f 70f
12:00 9 11 mph 1015.5mb 77f 70f
ven. 07/25 11:54 8 10 mph 1015.6mb 77f 70f
11:48 9 11 mph 1015.6mb - 70f
11:42 11 13 mph 1015.7mb - 70f
11:36 8 10 mph 1015.6mb - 70f
11:30 7 8 mph 1015.6mb 77f 70f
11:24 8 11 mph 1015.6mb 77f 70f
11:18 8 11 mph 1015.6mb 77f 70f
11:12 10 11 mph 1015.5mb 77f 70f
11:06 10 13 mph 1015.5mb 77f 70f
11:00 11 13 mph 1015.5mb 77f 71f
10:54 11 14 mph 1015.5mb 77f 70f
10:48 11 14 mph 1015.5mb 77f -
10:42 11 14 mph 1015.6mb - 70f
10:36  -  mph 1015.6mb 77f 70f
10:30  -  mph - - 70f
10:24 13 15 mph - 77f -
10:18 11 14 mph - 77f 71f
10:12  -  mph 1015.5mb 77f 71f
10:06 10 14 mph 1015.5mb 77f 71f
10:00 11 14 mph 1015.5mb 77f 71f
9:54 10 14 mph 1015.4mb 76f 71f
9:48  -  mph 1015.5mb 76f 71f
9:42  -  mph 1015.4mb 76f 71f
9:36  -  mph 1015.4mb 76f 71f
9:30 16 17 mph 1015.4mb 76f 71f
9:24 15 17 mph 1015.4mb 75f 71f
9:18 13 14 mph 1015.3mb 75f 71f
9:12 13 15 mph 1015.1mb 75f 71f
9:06 14 16 mph 1014.9mb 75f 71f
9:00 14 16 mph 1014.8mb 75f 71f
8:54 15 17 mph 1014.8mb 74f 71f
8:48 15 18 mph 1014.7mb 74f 71f
8:42 15 16 mph 1014.6mb 74f 72f
8:36 15 17 mph 1014.6mb 74f 72f
8:30 16 18 mph 1014.6mb 74f 72f
8:24 15 17 mph 1014.5mb 74f 72f
8:18 15 17 mph 1014.4mb 74f 73f
8:12 16 17 mph 1014.3mb 74f 73f
8:06 16 18 mph 1014.3mb 74f 73f
8:00 18 20 mph 1014.2mb 74f 73f
7:54 17 18 mph 1014.2mb 74f 73f
7:48 16 17 mph 1014.2mb 74f 74f
7:42 15 16 mph 1014.2mb 74f 74f
7:36 14 15 mph 1014.1mb 74f 74f
7:30 14 15 mph 1014.1mb 74f 74f
7:24 14 16 mph 1014.1mb 74f 74f
7:18 14 15 mph 1014mb 74f 75f
7:12 14 20 mph 1013.9mb 74f 75f
7:06 18 20 mph 1013.7mb 74f 74f
7:00 18 20 mph 1013.7mb 73f 74f
6:54 16 20 mph 1013.7mb 73f 74f
6:48 17 22 mph 1013.7mb 73f 74f
6:42 17 20 mph 1013.7mb 73f 74f
6:36 20 21 mph 1013.7mb 73f 74f
6:30 18 21 mph 1013.8mb 73f 74f
6:24 18 20 mph 1013.7mb 74f 74f
6:18 18 21 mph 1013.7mb 74f 74f
6:12 18 20 mph 1013.8mb 74f 75f
6:06 17 20 mph 1013.8mb 74f 75f
6:00 17 20 mph 1013.8mb 74f 75f
5:54 15 20 mph 1013.7mb 74f 75f
5:48 17 20 mph 1013.8mb 75f 75f
5:42 17 20 mph 1013.7mb 75f 75f
5:36 16 18 mph 1013.8mb 75f 75f
5:30 16 17 mph 1013.7mb 75f 75f
5:24 17
mph
1013.7mb 75f 75f
5:18 16 17 mph 1013.8mb 75f 76f
5:12 16 17 mph 1013.8mb 75f 76f
5:06 14 16 mph 1013.8mb 75f 76f
5:00 11 13 mph 1013.8mb 75f 77f
4:54 11
mph
1013.7mb 75f 77f
4:48 10 14 mph 1013.7mb 75f 77f
4:42 11 13 mph 1013.8mb 74f 77f
4:36 10 13 mph 1013.8mb 74f 77f
4:30 8 10 mph 1013.8mb 73f 77f
4:24 9 10 mph 1013.8mb 73f 77f
4:18 7 8 mph 1013.8mb 73f 78f
4:12 3
mph
1013.8mb 73f 78f
4:06 6 7 mph 1013.8mb 73f 78f
4:00 3 6 mph 1013.9mb 73f 79f
3:54 2 3 mph 1013.9mb 73f 83f
3:48 3 5 mph 1013.9mb 73f 81f
3:42 2 6 mph 1013.9mb 73f 81f
3:36 6 7 mph 1013.9mb 73f 79f
3:30 3 6 mph 1014mb 73f 79f
3:24 3 7 mph 1014mb 73f 79f
3:18  -  3 mph 1013.9mb 73f 80f
3:12  -  2 mph 1013.9mb 74f 81f
3:06  -  2 mph 1013.8mb 74f 79f
3:00  -  5 mph 1013.9mb 74f 79f
2:54 3 7 mph 1013.9mb 75f 78f
2:48 6 8 mph 1013.9mb 75f 78f
2:42 5 7 mph 1014mb 76f 80f
2:36 7 9 mph 1014mb 76f 78f
2:30 7 10 mph 1014mb 76f 79f
2:24 8 11 mph 1013.8mb 77f 78f
2:18 10 13 mph 1013.9mb 77f 77f
2:12 8 10 mph 1013.9mb 77f 77f
2:06 9 13 mph 1013.9mb 77f 76f
2:00 10 13 mph 1013.9mb 77f 76f
1:54 6 8 mph 1014.1mb 77f 77f
1:48 3 7 mph 1014.1mb 77f 78f
1:42 5 7 mph 1014.1mb 77f 76f
1:36 6 10 mph 1014.1mb 77f 76f
1:30 6 8 mph 1014.2mb 77f 77f
1:24 9 10 mph 1014.3mb 77f 76f
1:18 5 7 mph 1014.3mb 77f 75f
1:12 6 8 mph 1014.3mb 77f 75f
1:06 6 8 mph 1014.4mb 77f 75f
1:00 7 8 mph 1014.5mb 77f 74f
12:54 3 5 mph 1014.5mb 77f 75f
12:48 6 9 mph 1014.5mb 77f 76f
12:42 6 8 mph 1014.5mb 77f 74f
12:36 5 8 mph 1014.6mb 76f 75f
12:30 6 9 mph 1014.5mb 76f 76f
12:24 8 14 mph 1014.5mb 76f 75f
12:18 6 9 mph 1014.6mb 76f 73f
12:12 7 10 mph 1014.6mb 76f 74f
12:06 9 13 mph 1014.7mb 76f 75f
12:00 8 13 mph 1014.8mb 76f 73f
11:54 10 13 mph 1014.7mb 76f 73f
11:48 7 13 mph 1014.8mb 76f 73f
11:42 6 8 mph 1014.8mb 76f 73f
11:36 7 9 mph 1014.7mb 76f 73f
11:30 8 10 mph 1014.8mb 76f 73f
11:24 7 10 mph 1014.9mb 76f 72f
11:18 8 10 mph 1014.9mb 76f 71f
11:12 7 8 mph 1015mb 76f 71f
11:06 9 13 mph 1015.1mb 76f 71f
11:00 8 10 mph 1015.1mb 76f 71f
10:54 7 10 mph 1015.1mb 76f 71f
10:48 8 10 mph 1015.2mb 76f 71f
10:42 8 10 mph 1015.2mb 76f 71f
10:36 9 11 mph 1015.3mb 76f 70f
10:30 8 9 mph 1015.3mb 76f 70f
10:24 9 11 mph 1015.3mb 76f 70f
10:18 9 11 mph 1015.4mb 76f 70f
10:12 7 13 mph 1015.4mb 76f 71f
10:06 8 10 mph 1015.3mb 76f 70f
10:00 7 9 mph 1015.2mb 76f 69f
9:54 7 9 mph 1015mb 76f 71f
9:48 5 9 mph 1015mb 76f 70f
9:42 9 10 mph 1014.9mb 76f 70f
9:36 7 10 mph 1014.9mb 76f 70f
9:30 9 10 mph 1014.9mb 76f 70f
9:24 9 11 mph 1014.9mb 76f 70f
9:18 7 13 mph 1014.9mb 76f 69f
9:12 7 10 mph 1014.9mb 76f 69f
9:06 10 11 mph 1014.8mb 76f 68f
9:00 10 14 mph 1014.7mb 76f 68f
8:54 10 13 mph 1014.7mb 76f 67f
8:48 10 13 mph 1014.6mb 76f 67f
8:42 10 13 mph 1014.5mb 76f 66f
8:36 11 14 mph 1014.6mb 76f 66f
8:30 10 13 mph 1014.5mb 76f 67f
8:24 9 11 mph 1014.5mb 76f 66f
8:18 8 10 mph 1014.4mb 76f 67f
8:12 8 10 mph 1014.3mb 76f 67f
8:06 8 11 mph 1014.3mb 76f 67f
8:00 10 13 mph 1014.3mb 76f 67f
7:54 11 13 mph 1014.2mb 76f 67f
7:48 11 14 mph 1014.3mb 75f 67f
7:42 13 14 mph 1014.3mb 75f 67f
7:36 10 14 mph 1014.2mb 75f 66f
7:30 13 15 mph 1014.3mb 75f 66f
7:24 14 16 mph 1014.3mb 75f 66f
7:18 15 17 mph 1014.3mb 74f 66f
7:12 15 20 mph 1014.3mb 74f 66f
7:06 16 20 mph 1014.1mb 74f 66f
7:00 17 20 mph 1014mb 74f 66f
6:54 15 18 mph 1014mb 74f 66f
6:48 16 20 mph 1014mb 74f 66f
6:42 14 16 mph 1013.8mb 74f 66f
6:36 15 18 mph 1013.8mb 74f 66f
6:30 15 17 mph 1013.7mb 74f 65f
6:24 15 16 mph 1013.7mb 74f 65f
6:18 14 16 mph 1013.7mb 74f 66f
6:12 16 18 mph 1013.7mb 74f 66f
6:06 16 18 mph 1013.6mb 74f 66f
6:00 17 20 mph 1013.5mb 75f 67f
5:54 11 14 mph 1013.6mb 75f 67f
5:48 11 13 mph 1013.6mb 75f 67f
5:42 10 11 mph 1013.6mb 75f 67f
5:36 10 11 mph 1013.5mb 76f 67f
5:30 10 14 mph 1013.5mb 76f 67f
5:24 13 14 mph 1013.4mb 76f 67f
5:18 13 14 mph 1013.3mb 76f 67f
5:12 11 14 mph 1013.3mb 76f 68f
5:06 14 16 mph 1013.2mb 77f 68f
5:00 16 20 mph 1013.2mb 77f 68f
4:54 16 18 mph 1013.1mb 77f 68f
4:48 14 15 mph 1013.2mb 77f 68f
4:42 11 14 mph 1013.1mb 77f 68f
4:36 11 16 mph 1013.1mb 77f 68f
4:30 13 15 mph 1013mb 77f 68f
4:24 13 15 mph 1013mb 77f 68f
4:18 9 13 mph 1013.1mb 77f 68f
4:12 9 11 mph 1013.1mb 77f 68f
4:06 8 11 mph 1013mb 77f 68f
4:00 9 11 mph 1012.9mb 77f 68f
3:54 10 13 mph 1012.9mb 77f 69f
3:48 10 14 mph 1012.7mb 77f 69f
3:42 9 11 mph 1012.7mb 77f 68f
3:36 9 11 mph 1012.7mb 77f 68f
3:30 8 11 mph 1012.7mb 77f 69f
3:24 8 13 mph 1012.7mb 77f 69f
3:18 11 16 mph 1012.6mb 77f 69f
3:12 15 16 mph 1012.5mb 77f 69f
3:06 13 15 mph 1012.6mb 77f 70f
3:00 10 14 mph 1012.5mb 77f 70f
2:54 13 15 mph 1012.4mb 77f 70f
2:48 10 13 mph 1012.5mb 77f 69f
2:42 7 8 mph 1012.5mb 77f 69f
2:36 6 8 mph 1012.4mb 77f 69f
2:30 5 7 mph 1012.4mb 77f 69f
2:24 6 7 mph 1012.5mb 77f 69f
2:18 6 8 mph 1012.4mb 77f 69f
2:12 7 8 mph 1012.3mb 77f 69f
2:06 6 7 mph 1012.4mb 77f 69f
2:00 5 6 mph 1012.5mb 77f 69f
1:54 6
mph
1012.5mb 77f 69f
1:48 3
mph
1012.6mb 78f 70f
1:42 2
mph
1012.5mb 78f 70f
1:36 2 5 mph 1012.4mb 78f 69f
1:30 2 3 mph 1012.4mb 78f 69f
1:24  -  3 mph 1012.3mb 78f 69f
1:18 2 3 mph 1012.2mb 78f 69f
1:12 3 6 mph 1012.2mb 78f 69f
1:06 5 6 mph 1012.1mb 78f 69f
1:00 6 7 mph 1012.1mb 78f 69f
12:54 6 7 mph 1012.1mb 78f 70f
12:48 6 7 mph 1012.2mb 78f 70f
12:42 6
mph
1012.2mb 78f 70f
12:36 5 6 mph 1012.1mb 78f 70f
12:30 5 6 mph 1012.2mb 78f 70f
12:24 6
mph
1012.2mb 78f 70f
12:18 6 7 mph 1012.1mb 78f 70f
12:12 6
mph
1012.2mb 78f 70f
12:06 6
mph
1012.3mb 77f 70f
12:00 6 7 mph 1012.3mb 77f 70f
jeu. 07/24 11:54 6 7 mph 1012.2mb 77f 70f
11:48 6
mph
1012.1mb 77f 70f
11:42 5 6 mph 1012.1mb 77f 70f
11:36 6 7 mph 1012.1mb 77f 70f
11:30 6 7 mph 1012mb 77f 70f
11:24 6 7 mph 1012mb 78f 70f
11:18 5 6 mph 1012.2mb 78f 71f
11:12 6 7 mph 1012.1mb 78f 71f
11:06 6 7 mph 1011.9mb 78f 71f
11:00 6 7 mph 1012mb 77f 71f
10:54 5 6 mph 1011.9mb 77f 71f
10:48 3 5 mph 1012.1mb 77f 71f
10:42 5 6 mph 1012mb 77f 71f
10:36 5 7 mph 1012mb 77f 71f
10:30 6 7 mph 1011.9mb 77f 71f
10:24 5 6 mph 1011.8mb 77f 71f
10:18 5
mph
1011.9mb 77f 71f
10:12 5
mph
1011.9mb 77f 71f
10:06 5 6 mph 1011.8mb 77f 71f
10:00 3 5 mph 1011.7mb 77f 71f
9:54 3 5 mph 1011.7mb 77f 71f
9:48 2 5 mph 1011.6mb 77f 71f
9:42 5 6 mph 1011.4mb 77f 71f
9:36 6
mph
1011.3mb 77f 71f
9:30 5
mph
1011.4mb 77f 71f
9:24 5 6 mph 1011.4mb 77f 72f
9:18 6
mph
1011.3mb 77f 72f
9:12 6 7 mph 1011.2mb 77f 72f
9:06 5 6 mph 1011.2mb 77f 72f